createdAt,value
2022-08-30T00:01:56.821Z,3.70
2022-08-30T00:06:51.520Z,2.75
2022-08-30T00:11:49.876Z,2.60
2022-08-30T00:16:44.214Z,2.40
2022-08-30T00:21:37.660Z,2.47
2022-08-30T00:26:32.341Z,3.15
2022-08-30T00:31:25.154Z,3.65
2022-08-30T00:36:18.842Z,4.00
2022-08-30T00:41:12.819Z,3.58
2022-08-30T00:46:09.057Z,4.47
2022-08-30T00:51:05.746Z,5.13
2022-08-30T00:56:00.188Z,6.25
2022-08-30T01:00:56.343Z,5.82
2022-08-30T01:05:50.744Z,4.65
2022-08-30T01:10:44.732Z,4.38
2022-08-30T01:15:38.931Z,3.25
2022-08-30T01:20:42.357Z,2.90
2022-08-30T01:25:37.971Z,3.40
2022-08-30T01:30:33.699Z,3.15
2022-08-30T01:35:29.112Z,3.08
2022-08-30T01:40:23.982Z,2.97
2022-08-30T01:45:18.071Z,2.50
2022-08-30T01:50:12.372Z,2.78
2022-08-30T01:55:07.832Z,3.55
2022-08-30T02:00:01.877Z,3.00
2022-08-30T02:05:06.468Z,3.08
2022-08-30T02:09:59.736Z,3.22
2022-08-30T02:14:53.942Z,3.30
2022-08-30T02:19:47.801Z,2.92
2022-08-30T02:24:41.077Z,3.72
2022-08-30T02:29:34.964Z,2.92
2022-08-30T02:34:28.307Z,3.33
2022-08-30T02:39:22.525Z,4.32
2022-08-30T02:44:16.210Z,4.50
2022-08-30T02:49:32.630Z,3.92
2022-08-30T02:54:24.095Z,5.07
2022-08-30T02:59:19.129Z,4.30
2022-08-30T03:04:14.003Z,4.00
2022-08-30T03:09:08.214Z,5.93
2022-08-30T03:14:02.652Z,6.80
2022-08-30T03:18:56.216Z,6.45
2022-08-30T03:23:50.006Z,7.20
2022-08-30T03:28:44.244Z,7.25
2022-08-30T03:33:37.883Z,6.38
2022-08-30T03:38:32.026Z,7.05
2022-08-30T03:43:26.290Z,6.70
2022-08-30T03:48:20.980Z,6.53
2022-08-30T03:53:13.860Z,7.07
2022-08-30T03:58:08.026Z,6.15
2022-08-30T04:03:01.715Z,4.97
2022-08-30T04:07:55.673Z,4.50
2022-08-30T04:12:50.226Z,4.47
2022-08-30T04:17:43.732Z,3.78
2022-08-30T04:22:38.262Z,4.72
2022-08-30T04:27:32.341Z,4.10
2022-08-30T04:32:26.808Z,4.85
2022-08-30T04:37:21.529Z,6.18
2022-08-30T04:42:16.988Z,7.10
2022-08-30T04:47:10.934Z,7.57
2022-08-30T04:52:07.188Z,8.07
2022-08-30T04:57:01.855Z,9.30
2022-08-30T05:01:56.284Z,9.98
2022-08-30T05:06:49.688Z,9.73
2022-08-30T05:11:44.980Z,10.43
2022-08-30T05:16:37.994Z,10.13
2022-08-30T05:21:32.806Z,10.32
2022-08-30T05:26:28.882Z,10.15
2022-08-30T05:31:27.355Z,9.50
2022-08-30T05:36:24.509Z,10.65
2022-08-30T05:41:20.727Z,10.50
2022-08-30T05:46:19.839Z,8.70
2022-08-30T05:56:14.586Z,8.17
2022-08-30T06:01:09.322Z,6.82
2022-08-30T06:06:07.341Z,6.88
2022-08-30T06:15:55.126Z,5.07
2022-08-30T06:20:50.241Z,6.00
2022-08-30T06:25:44.079Z,5.32
2022-08-30T06:30:37.843Z,6.75
2022-08-30T06:35:46.811Z,6.60
2022-08-30T06:40:51.864Z,6.40
2022-08-30T06:45:46.075Z,7.97
2022-08-30T06:50:42.739Z,8.88
2022-08-30T06:55:36.880Z,7.22
2022-08-30T07:00:29.169Z,7.50
2022-08-30T07:05:24.535Z,7.43
2022-08-30T07:10:18.583Z,8.80
2022-08-30T07:15:13.331Z,4.97
2022-08-30T07:20:08.245Z,8.95
2022-08-30T07:25:02.675Z,5.35
2022-08-30T07:29:56.719Z,4.15
2022-08-30T07:34:51.753Z,6.45
2022-08-30T07:39:47.762Z,3.30
2022-08-30T07:44:42.292Z,3.42
2022-08-30T07:49:35.832Z,3.60
2022-08-30T07:54:30.095Z,3.45
2022-08-30T07:59:24.641Z,3.38
2022-08-30T08:04:23.066Z,3.08
2022-08-30T08:09:16.505Z,3.28
2022-08-30T08:14:10.991Z,3.10
2022-08-30T08:19:05.908Z,2.85
2022-08-30T08:24:01.078Z,3.20
2022-08-30T08:28:56.661Z,3.03
2022-08-30T08:33:50.765Z,3.45
2022-08-30T08:38:45.472Z,3.38
2022-08-30T08:43:39.476Z,3.00
2022-08-30T08:48:59.072Z,2.90
2022-08-30T08:53:59.999Z,3.13
2022-08-30T08:58:58.743Z,2.65
2022-08-30T09:03:52.728Z,2.75
2022-08-30T09:08:46.325Z,3.22
2022-08-30T09:13:40.313Z,3.17
2022-08-30T09:18:49.039Z,3.30
2022-08-30T09:24:02.803Z,3.28
2022-08-30T09:28:59.251Z,3.50
2022-08-30T09:33:56.655Z,2.63
2022-08-30T09:39:02.941Z,2.83
2022-08-30T09:44:17.272Z,2.80
2022-08-30T09:49:32.468Z,3.05
2022-08-30T09:54:31.086Z,3.28
2022-08-30T09:59:56.598Z,4.60
2022-08-30T10:05:25.197Z,3.90
2022-08-30T10:10:27.252Z,3.75
2022-08-30T10:15:38.582Z,3.08
2022-08-30T10:20:42.710Z,4.40
2022-08-30T10:25:44.341Z,3.47
2022-08-30T10:30:40.204Z,3.20
2022-08-30T10:35:47.707Z,3.05
2022-08-30T10:41:02.884Z,3.05
2022-08-30T10:45:58.008Z,2.80
2022-08-30T10:50:54.289Z,3.10
2022-08-30T11:01:04.269Z,3.30
2022-08-30T11:06:26.964Z,2.85
2022-08-30T11:11:43.837Z,2.50
2022-08-30T11:16:38.743Z,4.07
2022-08-30T11:21:39.034Z,2.47
2022-08-30T11:26:49.076Z,2.28
2022-08-30T11:31:43.288Z,2.78
2022-08-30T11:36:46.217Z,2.75
2022-08-30T11:41:46.086Z,2.88
2022-08-30T11:46:45.399Z,3.35
2022-08-30T11:57:30.739Z,3.00
2022-08-30T12:02:49.088Z,2.90
2022-08-30T12:08:00.980Z,3.00
2022-08-30T12:13:11.530Z,3.13
2022-08-30T12:30:14.570Z,2.58
2022-08-30T12:35:30.811Z,2.42
2022-08-30T12:40:56.593Z,2.20
2022-08-30T12:51:26.686Z,1.95
2022-08-30T12:56:49.487Z,2.80
2022-08-30T13:02:05.979Z,2.80
2022-08-30T13:24:21.384Z,2.60
2022-08-30T13:29:29.492Z,2.30
2022-08-30T13:34:28.666Z,3.22
2022-08-30T13:44:31.340Z,2.85
2022-08-30T13:49:44.995Z,3.63
2022-08-30T13:54:38.711Z,4.20
2022-08-30T13:59:34.102Z,3.00
2022-08-30T14:04:28.483Z,3.08
2022-08-30T14:09:22.936Z,3.38
2022-08-30T14:14:25.189Z,3.63
2022-08-30T14:19:30.008Z,3.80
2022-08-30T14:24:27.337Z,3.63
2022-08-30T14:29:28.449Z,5.13
2022-08-30T14:34:23.769Z,6.13
2022-08-30T14:39:23.085Z,8.15
2022-08-30T14:44:17.905Z,4.25
2022-08-30T14:49:12.683Z,2.55
2022-08-30T14:54:06.903Z,6.55
2022-08-30T14:59:03.735Z,4.68
2022-08-30T15:03:57.289Z,3.22
2022-08-30T15:08:53.118Z,4.40
2022-08-30T15:13:48.050Z,5.07
2022-08-30T15:18:42.767Z,4.78
2022-08-30T15:23:36.283Z,3.00
2022-08-30T15:28:30.745Z,1.75
2022-08-30T15:33:25.088Z,1.80
2022-08-30T15:38:19.364Z,2.05
2022-08-30T15:43:16.344Z,3.00
2022-08-30T15:48:10.259Z,1.80
2022-08-30T15:53:07.583Z,2.15
2022-08-30T15:58:01.779Z,1.77
2022-08-30T16:02:56.282Z,2.20
2022-08-30T16:07:49.916Z,2.22
2022-08-30T16:12:44.628Z,1.90
2022-08-30T16:17:39.343Z,2.33
2022-08-30T16:22:33.143Z,2.30
2022-08-30T16:27:27.635Z,2.90
2022-08-30T16:32:22.202Z,4.20
2022-08-30T16:37:17.980Z,3.78
2022-08-30T16:42:13.299Z,4.18
2022-08-30T16:47:14.508Z,4.35
2022-08-30T16:52:09.025Z,3.58
2022-08-30T16:57:06.476Z,3.40
2022-08-30T17:02:00.012Z,3.50
2022-08-30T17:06:54.069Z,3.92
2022-08-30T17:11:48.535Z,5.10
2022-08-30T17:16:42.877Z,6.82
2022-08-30T17:21:40.088Z,13.68
2022-08-30T17:26:36.667Z,12.70
2022-08-30T17:31:31.566Z,9.40
2022-08-30T17:36:25.096Z,11.85
2022-08-30T17:41:19.123Z,10.70
2022-08-30T17:46:20.419Z,7.88
2022-08-30T17:51:14.907Z,7.10
2022-08-30T17:56:10.198Z,6.72
2022-08-30T18:01:11.461Z,5.18
2022-08-30T18:06:07.101Z,4.78
2022-08-30T18:11:00.245Z,4.80
2022-08-30T18:15:53.905Z,6.07
2022-08-30T18:20:48.087Z,6.00
2022-08-30T18:25:42.004Z,6.22
2022-08-30T18:30:41.410Z,6.65
2022-08-30T18:35:36.635Z,6.18
2022-08-30T18:40:31.089Z,6.63
2022-08-30T18:45:25.336Z,6.45
2022-08-30T18:50:19.606Z,5.75
2022-08-30T18:55:14.355Z,6.25
2022-08-30T19:00:11.283Z,6.07
2022-08-30T19:05:06.072Z,7.00
2022-08-30T19:09:59.284Z,6.95
2022-08-30T19:14:53.619Z,7.70
2022-08-30T19:19:52.290Z,6.93
2022-08-30T19:24:46.291Z,6.47
2022-08-30T19:29:41.717Z,6.60
2022-08-30T19:34:38.295Z,6.80
2022-08-30T19:39:31.731Z,6.20
2022-08-30T19:44:25.541Z,5.72
2022-08-30T19:49:19.701Z,6.68
2022-08-30T19:54:19.669Z,5.97
2022-08-30T19:59:12.852Z,6.68
2022-08-30T20:04:07.320Z,6.60
2022-08-30T20:09:01.654Z,6.70
2022-08-30T20:13:56.178Z,7.25
2022-08-30T20:18:50.483Z,7.65
2022-08-30T20:23:44.708Z,8.18
2022-08-30T20:28:39.447Z,11.00
2022-08-30T20:33:34.524Z,10.32
2022-08-30T20:38:29.110Z,11.30
2022-08-30T20:43:24.563Z,11.65
2022-08-30T20:48:19.012Z,11.13
2022-08-30T20:53:13.364Z,10.30
2022-08-30T20:58:07.987Z,9.73
2022-08-30T21:03:01.971Z,9.73
2022-08-30T21:08:02.336Z,9.90
2022-08-30T21:13:03.610Z,10.10
2022-08-30T21:17:57.443Z,11.52
2022-08-30T21:22:51.704Z,9.35
2022-08-30T21:27:45.527Z,11.65
2022-08-30T21:32:39.348Z,9.98
2022-08-30T21:37:36.153Z,9.55
2022-08-30T21:42:31.095Z,10.68
2022-08-30T21:47:24.877Z,8.55
2022-08-30T21:52:17.770Z,8.82
2022-08-30T21:57:12.084Z,10.07
2022-08-30T22:02:06.470Z,12.73
2022-08-30T22:07:01.108Z,17.42
2022-08-30T22:11:54.842Z,14.13
2022-08-30T22:16:48.789Z,14.05
2022-08-30T22:21:43.006Z,14.45
2022-08-30T22:26:37.783Z,14.15
2022-08-30T22:31:31.478Z,13.45
2022-08-30T22:36:32.567Z,15.15
2022-08-30T22:41:31.232Z,14.93
2022-08-30T22:46:34.341Z,17.20
2022-08-30T22:51:28.285Z,15.73
2022-08-30T22:56:23.831Z,16.77
2022-08-30T23:01:43.111Z,16.35
2022-08-30T23:06:37.908Z,16.58
2022-08-30T23:11:33.456Z,17.67
2022-08-30T23:16:27.557Z,20.33
2022-08-30T23:21:31.689Z,21.10
2022-08-30T23:26:44.404Z,20.35
2022-08-30T23:31:56.315Z,22.15
2022-08-30T23:37:08.217Z,23.40
2022-08-30T23:42:20.659Z,24.70
2022-08-30T23:47:31.932Z,26.20
2022-08-30T23:52:43.861Z,24.17
2022-08-30T23:57:56.758Z,25.17
